Tiempo atmosférico en la estación meteorológica de Montoro, Córdoba (155 m.)



Fecha
DESCASC
Temp. máxima en grados centígrados (hora)
DESCASC
Temp. mínima en grados centígrados (hora)
DESCASC
Temp. media en grados centígrados
DESCASC
Racha de viento máxima en m/sg (hora)
DESCASC
Velocidad máxima media en intervalos de 10 minutos(hora)
DESCASC
Precipitaciones diarias en mm
DESCASC
Precipitaciones de 00:00 a 06:00 en mm
DESCASC
Precipitaciones de 06:00 a 12:00 en mm
DESCASC
Precipitaciones de 12:00 a 18:00 en mm
DESCASC
Precipitaciones de 18:00 a 24:00 en mm
DESCASC
05-01-2021 11 (14:40) -0.1 (00:00) 5.4 5.28 (16:10) 2.78 (12:30) 0 0 0 0 0
17-01-2021 18.9 (16:30) -3.3 (-00:0) 7.8 5 (12:10) 2.5 (11:30) 0 0 0 0 0
16-01-2021 17.3 (16:40) -3.3 (-00:0) 7 4.17 (14:00) 1.94 (11:50) 0.2 0 0.2 0 0
15-01-2021 16.2 (16:50) -3.7 (-00:0) 6.3 3.06 (16:50) 1.67 (16:30) 0 0 0 0 0
14-01-2021 12.9 (15:30) -3.7 (08:00) 4.6 4.17 (16:30) 2.78 (16:30) 0 0 0 0 0
13-01-2021 14.9 (17:20) -3.6 (-00:0) 5.6 2.5 (11:40) 1.67 (18:40) 0 0 0 0 0
12-01-2021 12.3 (17:20) -3.3 (-00:0) 4.5 5.28 (13:20) 2.78 (13:30) 0.2 0 0.2 0 0
11-01-2021 12.2 (15:20) -1.2 (-00:0) 5.5 5.28 (14:50) 2.78 (15:50) 0 0 0 0 0
10-01-2021 11 (14:20) 0.7 (06:50) 5.8 6.39 (12:20) 3.06 (12:20) 0.6 0 0.6 0 0
18-01-2021 -- (--) -- (--) -- -- (--) -- (--) -- 0 0 -- 0
19-01-2021 15.6 (14:50) -2 (-00:0) 6.8 5.56 (15:40) 3.33 (15:30) 0 0 0 0 0
20-01-2021 12.5 (20:00) 1.2 (00:00) 6.9 9.17 (20:10) 5.28 (20:10) 10.2 0 2.8 6.2 1.2
06-01-2021 9.8 (13:30) -0.4 (00:00) 4.7 5.83 (23:59) 2.78 (23:59) 0.6 0 0 0 0.6
04-01-2021 9 (15:50) -4.4 (-00:0) 2.3 3.61 (16:00) 1.11 (17:40) 0.4 0 0 0.2 0.2
03-01-2021 10.3 (16:00) -4.3 (-00:0) 3 5.56 (16:30) 3.06 (16:30) 0 0 0 0 0
02-01-2021 10.8 (16:00) -0.4 (00:00) 5.2 6.67 (15:00) 3.89 (17:20) 0 0 0 0 0
23-12-2020 17.2 (16:20) 5.1 (00:00) 11.2 2.78 (15:50) 1.39 (15:50) 0 0 0 0 0
31-12-2020 10.9 (16:00) -2.8 (-00:0) 4 5 (23:50) 2.78 (23:20) 0.2 0 0 0 0.2
30-12-2020 11.7 (16:20) -1.6 (-00:0) 5 2.5 (14:50) 1.39 (11:50) 0.2 0 0.2 0 0
29-12-2020 12.3 (15:30) 2.6 (00:00) 7.5 7.78 (15:00) 3.89 (15:50) 0 0 0 0 0
28-12-2020 15.1 (14:50) 2.7 (00:00) 8.9 8.89 (15:00) 5.28 (16:00) 3 0 3 0 0
27-12-2020 12 (16:50) -2.7 (-00:0) 4.6 5 (16:00) 2.78 (16:00) 0 0 0 0 0
26-12-2020 12.6 (15:50) 0.2 (00:00) 6.4 9.44 (10:20) 4.72 (10:20) 0 0 0 0 0
25-12-2020 14.7 (13:50) 5.2 (00:00) 9.9 8.89 (11:40) 4.44 (13:30) 0.2 0 0.2 0 0
24-12-2020 17.4 (13:40) 8.3 (00:00) 12.8 3.89 (14:00) 1.67 (13:50) 0 0 0 0 0
21-01-2021 15.1 (15:40) 10.7 (00:00) 12.9 11.11 (20:40) 6.39 (20:40) 1.2 0.4 0.6 0.2 0
01-01-2021 11.7 (16:00) 2.6 (00:00) 7.1 7.5 (17:20) 4.17 (17:10) 1 1 0 0 0
07-01-2021 7.5 (00:00) 5.4 (00:00) 6.5 5.28 (00:10) 3.06 (00:10) 12 3 4.2 2.8 2
08-01-2021 10.6 (19:50) 5.4 (00:00) 8 8.33 (11:30) 3.61 (19:50) 22 4.2 4.6 6.8 6.4
09-01-2021 8.7 (00:00) 2.6 (00:00) 5.6 11.39 (07:50) 5.28 (13:50) 5.6 5.4 0.2 0 0

Gráficas

Temp. máximas Temp. mínimas Temp. medias Precipitaciones Rachas de viento máximas Velocidades máximas media en intervalos de 10 minutos

Datos horarios

Fecha y hora oficial Temperatura (ºC) Velocidad del viento (km/h) Dirección del viento Racha (km/h) Dirección de racha Precipitación (mm) Presión (hPa) Tendencia (hPa) Humedad (%)
2021-01-21 23:00:00 13.6 14 Oeste 36 Sudoeste 0 -- -- 88
2021-01-21 22:00:00 13.7 16 Sudoeste 36 Oeste 0 -- -- 88
2021-01-21 21:00:00 13.8 20 Sudoeste 40 Sudoeste 0 -- -- 89
2021-01-21 20:00:00 13.6 18 Oeste 39 Sudoeste 0 -- -- 90
2021-01-21 19:00:00 13.6 15 Oeste 29 Oeste 0 -- -- 91
2021-01-21 18:00:00 14.1 11 Oeste 21 Oeste 0.2 -- -- 88
2021-01-21 17:00:00 14.4 13 Sudoeste 29 Oeste 0 -- -- 86
2021-01-21 16:00:00 15.1 17 Oeste 32 Oeste 0 -- -- 81
2021-01-21 15:00:00 14.8 12 Oeste 27 Oeste 0 -- -- 83
2021-01-21 14:00:00 14.2 15 Oeste 28 Oeste 0 -- -- 84
2021-01-21 13:00:00 12.7 11 Oeste 23 Oeste 0 -- -- 95
2021-01-21 12:00:00 11.6 7 Oeste 16 Noroeste 0.6 -- -- 97
2021-01-21 11:00:00 11.4 6 Oeste 21 Oeste 0 -- -- 96
2021-01-21 10:00:00 11.5 5 Noroeste 18 Oeste 0 -- -- 97
2021-01-21 09:00:00 11.2 5 Noroeste 21 Oeste 0 -- -- 97
2021-01-21 08:00:00 11 4 Noroeste 12 Sudoeste 0 -- -- 97
2021-01-21 07:00:00 10.8 5 Noroeste 11 Noroeste 0 -- -- 97
2021-01-21 06:00:00 10.8 6 Oeste 20 Oeste 0 -- -- 97
2021-01-21 05:00:00 10.8 8 Oeste 15 Oeste 0 -- -- 96
2021-01-21 04:00:00 10.7 4 Oeste 10 Sudoeste 0 -- -- 96
2021-01-21 03:00:00 10.9 6 Oeste 16 Oeste 0 -- -- 96
2021-01-21 02:00:00 10.9 5 Oeste 12 Oeste 0.2 -- -- 96
2021-01-21 01:00:00 11 6 Sudoeste 19 Oeste 0.2 -- -- 95
2021-01-21 00:00:00 11.5 10 Oeste 22 Sudoeste 0 -- -- 95
2021-01-20 23:00:00 11.7 6 Oeste 14 Oeste 0 -- -- 95
2021-01-20 22:00:00 11.5 5 Oeste 15 Oeste 0 -- -- 95
2021-01-20 21:00:00 11.5 5 Noroeste 33 Sudoeste 1 -- -- 94
2021-01-20 20:00:00 12.5 12 Sudoeste 32 Sur 0.2 -- -- 89
2021-01-20 19:00:00 11.1 0 Calma 14 Oeste 0 -- -- 95
2021-01-20 18:00:00 11.7 8 Oeste 16 Oeste 1.2 -- -- 96
2021-01-20 17:00:00 11.5 5 Noroeste 11 Oeste 1.4 -- -- 97
2021-01-20 16:00:00 10.5 5 Noroeste 7 Noroeste 0.2 -- -- 98
2021-01-20 15:00:00 10 4 Sudoeste 7 Sur 0.6 -- -- 97
2021-01-20 14:00:00 8.3 0 Calma 18 Nordeste 1.4 -- -- 97
2021-01-20 13:00:00 6.2 6 Sudeste 14 Sudeste 1.4 -- -- 95
2021-01-20 12:00:00 6 4 Sudeste 10 Sudeste 0.2 -- -- 95
2021-01-20 11:00:00 5.2 0 Calma 5 Sudoeste 2 -- -- 94
2021-01-20 10:00:00 5.1 4 Sur 10 Sudeste 0.6 -- -- 91
2021-01-20 09:00:00 5.1 2 Este 7 Sur 0 -- -- 87
2021-01-20 08:00:00 5.2 0 Calma 14 Sudeste 0 -- -- 86
2021-01-20 07:00:00 5 5 Sudeste 12 Sudeste 0 -- -- 89
2021-01-20 06:00:00 4.5 7 Sudeste 14 Este 0 -- -- 94
2021-01-20 05:00:00 3.2 0 Calma 6 Sudoeste 0 -- -- 96
2021-01-20 04:00:00 2.7 0 Calma 6 Sudoeste 0 -- -- 96
2021-01-20 03:00:00 1.5 0 Calma 5 Sudoeste -- -- -- 94
2021-01-20 02:00:00 1.3 0 Calma 4 Sudeste 0 -- -- 94
2021-01-20 01:00:00 1.5 0 Calma 5 Norte 0 -- -- 93
2021-01-20 00:00:00 1.8 0 Calma 4 Norte 0 -- -- 92
2021-01-19 23:00:00 2.7 0 Calma 2 Noroeste 0 -- -- 91
2021-01-19 22:00:00 3.6 0 Calma 2 Sudeste 0 -- -- 89
2021-01-19 21:00:00 4.9 0 Calma 5 Norte 0 -- -- 85
2021-01-19 20:00:00 6.8 4 Norte 5 Norte 0 -- -- 81
2021-01-19 19:00:00 10 0 Calma 4 Oeste 0 -- -- 70
2021-01-19 18:00:00 13.6 0 Calma 9 Oeste 0 -- -- 59
2021-01-19 17:00:00 14.5 5 Oeste 17 Oeste 0 -- -- 56
2021-01-19 16:00:00 15 8 Oeste 20 Sudoeste 0 -- -- 57
2021-01-19 15:00:00 15.5 4 Oeste 9 Sudoeste 0 -- -- 56
2021-01-19 14:00:00 14.1 3 Sur 8 Sudeste 0 -- -- 53
2021-01-19 13:00:00 11.7 3 Sur 13 Este 0 -- -- 58
2021-01-19 12:00:00 8.7 5 Este 15 Este 0 -- -- 70
2021-01-19 11:00:00 3.9 2 Sudoeste 5 Sudoeste 0 -- -- 95
2021-01-19 10:00:00 0.2 2 Sur 4 Sudoeste 0 -- -- 96
2021-01-19 09:00:00 -2 2 Sur 3 Norte 0 -- -- 95
2021-01-19 08:00:00 -1.5 0 Calma 4 Norte 0 -- -- 95
2021-01-19 07:00:00 -1.7 0 Calma 2 Sudeste 0 -- -- 95
2021-01-19 06:00:00 -1.5 0 Calma 0 Calma 0 -- -- 94
2021-01-19 05:00:00 -1.3 0 Calma 0 Calma 0 -- -- 94
2021-01-19 04:00:00 -0.9 0 Calma 0 Calma 0 -- -- 94
2021-01-19 03:00:00 -0.7 0 Calma 0 Calma 0 -- -- 93
2021-01-19 02:00:00 0 0 Calma 0 Calma 0 -- -- 92
2021-01-19 01:00:00 0.2 0 Calma 0 Calma 0 -- -- 91
2021-01-19 00:00:00 0.9 0 Calma 0 Calma 0 -- -- 90
2021-01-18 23:00:00 2.1 0 Calma 2 Norte 0 -- -- 88
2021-01-18 22:00:00 3.1 0 Calma 3 Norte 0 -- -- 86
2021-01-18 21:00:00 4.5 2 Norte 4 Norte 0 -- -- 83
2021-01-18 20:00:00 6.8 2 Norte 7 Norte 0 -- -- 73
2021-01-18 19:00:00 10.2 4 Norte 8 Norte 0 -- -- 59
2021-01-18 18:00:00 16.4 0 Calma 5 Sudeste 0 -- -- 39
2021-01-18 17:00:00 19.5 4 Sudeste 9 Sur 0 -- -- 32
2021-01-18 16:00:00 19 3 Sudeste 9 Sudeste 0 -- -- 37
2021-01-18 15:00:00 -- -- -- -- -- -- -- -- --
2021-01-18 14:00:00 15.4 4 Sudeste 11 Este 0 -- -- 44
2021-01-18 13:00:00 12.3 6 Este 15 Este 0 -- -- 48
2021-01-18 12:00:00 9.6 5 Este 15 Este 0 -- -- 54
2021-01-18 11:00:00 4.8 2 Sur 5 Sur 0 -- -- 88
2021-01-18 10:00:00 -0.5 0 Calma 2 Sudoeste 0 -- -- 96
2021-01-18 09:00:00 -2.1 0 Calma 3 Norte 0 -- -- 96
2021-01-18 08:00:00 -2.4 0 Calma 3 Sudoeste 0 -- -- 95
2021-01-18 07:00:00 -2.2 0 Calma 2 Norte 0 -- -- 95
2021-01-18 06:00:00 -2 0 Calma 2 Norte 0 -- -- 95
2021-01-18 05:00:00 -1.4 0 Calma 4 Norte 0 -- -- 94
2021-01-18 04:00:00 -1.5 0 Calma 3 Norte 0 -- -- 94
2021-01-18 03:00:00 -0.7 3 Norte 4 Norte 0 -- -- 94
2021-01-18 02:00:00 -0.4 0 Calma 3 Norte 0 -- -- 93
2021-01-18 01:00:00 -0.1 0 Calma 2 Sur 0 -- -- 92
2021-01-18 00:00:00 0.9 0 Calma 3 Norte 0 -- -- 91
2021-01-17 23:00:00 1.8 0 Calma 2 Norte 0 -- -- 89
2021-01-17 22:00:00 2.5 0 Calma 4 Norte 0 -- -- 87
2021-01-17 21:00:00 4 0 Calma 4 Norte 0 -- -- 82
2021-01-17 20:00:00 6.1 0 Calma 5 Norte 0 -- -- 74
2021-01-17 19:00:00 9.5 4 Norte 6 Norte 0 -- -- 61
2021-01-17 18:00:00 15.5 2 Norte 3 Norte 0 -- -- 40
2021-01-17 17:00:00 18.5 3 Oeste 6 Este 0 -- -- 35
2021-01-17 16:00:00 18.2 0 Calma 8 Este 0 -- -- 31
2021-01-17 15:00:00 16.5 2 Este 10 Este 0 -- -- 34
2021-01-17 14:00:00 14.7 3 Sudeste 12 Este 0 -- -- 39
2021-01-17 13:00:00 11.6 6 Sudeste 18 Este 0 -- -- 44
2021-01-17 12:00:00 8.2 7 Este 16 Sudeste 0 -- -- 55
2021-01-17 11:00:00 4.8 5 Sudeste 14 Este 0 -- -- 80
2021-01-17 10:00:00 -0.9 2 Sur 3 Sur 0 -- -- 96
2021-01-17 09:00:00 -3 0 Calma 3 Norte 0 -- -- 95
2021-01-17 08:00:00 -3.2 0 Calma 3 Norte 0 -- -- 95
2021-01-17 07:00:00 -2.2 0 Calma 3 Norte 0 -- -- 95
2021-01-17 06:00:00 -2 0 Calma 2 Noroeste 0 -- -- 95
2021-01-17 05:00:00 -2.4 0 Calma 4 Norte 0 -- -- 95
2021-01-17 04:00:00 -1.1 3 Norte 4 Norte 0 -- -- 95
2021-01-17 03:00:00 -1 0 Calma 5 Oeste 0 -- -- 93
2021-01-17 02:00:00 -1 5 Sudoeste 10 Sudoeste 0 -- -- 94
2021-01-17 01:00:00 0.1 3 Norte 5 Norte 0 -- -- 94
2021-01-17 00:00:00 0.9 0 Calma 6 Noroeste 0 -- -- 92
2021-01-16 23:00:00 1.2 0 Calma 4 Sur 0 -- -- 91
2021-01-16 22:00:00 2.3 2 Norte 6 Norte 0 -- -- 88
2021-01-16 21:00:00 3.5 0 Calma 5 Norte 0 -- -- 83
2021-01-16 20:00:00 6.1 3 Norte 6 Norte 0 -- -- 74
2021-01-16 19:00:00 9.9 0 Calma 9 Nordeste 0 -- -- 59
2021-01-16 18:00:00 15.6 3 Este 12 Este 0 -- -- 42
2021-01-16 17:00:00 17.1 6 Sudeste 11 Este 0 -- -- 35
2021-01-16 16:00:00 16.8 4 Sudeste 13 Sur 0 -- -- 35
2021-01-16 15:00:00 16.2 5 Sur 13 Nordeste 0 -- -- 37
2021-01-16 14:00:00 14.1 6 Este 15 Este 0 -- -- 42
2021-01-16 13:00:00 11.8 3 Este 14 Sudeste 0 -- -- 55
2021-01-16 12:00:00 8.8 6 Sudeste 15 Nordeste 0 -- -- 65
2021-01-16 11:00:00 4.3 3 Sudeste 10 Sudeste 0.2 -- -- 94
2021-01-16 10:00:00 -0.8 0 Calma 2 Sudeste 0 -- -- 97
2021-01-16 09:00:00 -2.9 0 Calma 3 Norte 0 -- -- 96
2021-01-16 08:00:00 -2.9 0 Calma 2 Norte 0 -- -- 95
2021-01-16 07:00:00 -2.8 0 Calma 2 Sur 0 -- -- 95
2021-01-16 06:00:00 -3 0 Calma 2 Sur 0 -- -- 94
2021-01-16 05:00:00 -2.3 0 Calma 2 Norte 0 -- -- 95
2021-01-16 04:00:00 -1.9 0 Calma 2 Norte 0 -- -- 95
2021-01-16 03:00:00 -1.5 0 Calma 0 Calma 0 -- -- 95
2021-01-16 02:00:00 -1 0 Calma 0 Calma 0 -- -- 94
2021-01-16 01:00:00 -0.1 2 Norte 3 Norte 0 -- -- 94
2021-01-16 00:00:00 0.2 0 Calma 2 Sudeste 0 -- -- 93
2021-01-15 23:00:00 1.2 0 Calma 5 Norte 0 -- -- 91
2021-01-15 22:00:00 2.7 4 Norte 6 Norte 0 -- -- 91
2021-01-15 21:00:00 4.3 2 Norte 5 Sudeste 0 -- -- 88
2021-01-15 20:00:00 6.2 0 Calma 3 Este 0 -- -- 83
2021-01-15 19:00:00 9.2 0 Calma 7 Nordeste 0 -- -- 71
2021-01-15 18:00:00 13.8 4 Nordeste 7 Sur 0 -- -- 57
2021-01-15 17:00:00 16.2 4 Sudeste 11 Sur 0 -- -- 48
2021-01-15 16:00:00 15.7 5 Este 10 Este 0 -- -- 48
2021-01-15 15:00:00 14.8 5 Sur 8 Sudoeste 0 -- -- 52
2021-01-15 14:00:00 12.8 3 Sudoeste 6 Sudoeste 0 -- -- 62
2021-01-15 13:00:00 9.9 4 Sur 10 Sudeste 0 -- -- 65
2021-01-15 12:00:00 7.3 5 Sudeste 9 Sudeste 0 -- -- 81
2021-01-15 11:00:00 1.9 0 Calma 3 Sudoeste 0 -- -- 99
2021-01-15 10:00:00 -2 0 Calma 3 Sur 0 -- -- 98
2021-01-15 09:00:00 -3.2 0 Calma 3 Sudoeste 0 -- -- 97
2021-01-15 08:00:00 -3.4 0 Calma 3 Sur 0 -- -- 98
2021-01-15 07:00:00 -3.1 0 Calma 3 Sudoeste 0 -- -- 96
2021-01-15 06:00:00 -2.5 0 Calma 2 Sudoeste 0 -- -- 97
2021-01-15 05:00:00 -2.3 0 Calma 2 Norte 0 -- -- 96
2021-01-15 04:00:00 -2.4 0 Calma 4 Noroeste 0 -- -- 95
2021-01-15 03:00:00 -1.4 0 Calma 4 Norte 0 -- -- 96
2021-01-15 02:00:00 -1.1 0 Calma 2 Norte 0 -- -- 95
2021-01-15 01:00:00 -0.8 0 Calma 2 Este 0 -- -- 94
2021-01-15 00:00:00 0 2 Norte 3 Norte 0 -- -- 94
2021-01-14 23:00:00 0.7 0 Calma 2 Norte 0 -- -- 93
2021-01-14 22:00:00 1.4 0 Calma 4 Norte 0 -- -- 91
2021-01-14 21:00:00 2.5 0 Calma 2 Sudeste 0 -- -- 89
2021-01-14 20:00:00 3.7 0 Calma 2 Norte 0 -- -- 84
2021-01-14 19:00:00 5.6 0 Calma 4 Noroeste 0 -- -- 78
2021-01-14 18:00:00 8.3 4 Noroeste 8 Noroeste 0 -- -- 68
2021-01-14 17:00:00 10.7 5 Oeste 15 Oeste 0 -- -- 58
2021-01-14 16:00:00 12.7 4 Oeste 9 Sudoeste 0 -- -- 55
2021-01-14 15:00:00 12.6 2 Sudoeste 6 Noroeste 0 -- -- 50
2021-01-14 14:00:00 10.7 2 Oeste 9 Sur 0 -- -- 57
2021-01-14 13:00:00 9.2 4 Sur 9 Sur 0 -- -- 62
2021-01-14 12:00:00 6 3 Sudeste 9 Este 0 -- -- 79
2021-01-14 11:00:00 1.4 2 Sur 4 Sudoeste 0 -- -- 96
2021-01-14 10:00:00 -1.8 0 Calma 2 Sudoeste 0 -- -- 96
2021-01-14 09:00:00 -3.4 0 Calma 2 Sudoeste 0 -- -- 95
2021-01-14 08:00:00 -3.7 0 Calma 2 Sur 0 -- -- 95
2021-01-14 07:00:00 -3 0 Calma 2 Norte 0 -- -- 95
2021-01-14 06:00:00 -3 0 Calma 2 Sur 0 -- -- 94
2021-01-14 05:00:00 -2.7 0 Calma 2 Norte 0 -- -- 95
2021-01-14 04:00:00 -1.9 0 Calma 2 Norte 0 -- -- 95
2021-01-14 03:00:00 -1.7 0 Calma 0 Calma 0 -- -- 94
2021-01-14 02:00:00 -1 0 Calma 2 Norte 0 -- -- 94
2021-01-14 01:00:00 -0.6 2 Norte 3 Norte 0 -- -- 93
2021-01-14 00:00:00 -0.5 0 Calma 2 Sudeste 0 -- -- 92
2021-01-13 23:00:00 0.3 0 Calma 0 Calma 0 -- -- 91
2021-01-13 22:00:00 1.3 0 Calma 0 Calma 0 -- -- 88
2021-01-13 21:00:00 2.5 0 Calma 4 Norte 0 -- -- 86
2021-01-13 20:00:00 4.2 0 Calma 6 Norte 0 -- -- 79
2021-01-13 19:00:00 7.1 5 Norte 8 Norte 0 -- -- 65
2021-01-13 18:00:00 12.3 0 Calma 3 Sudoeste 0 -- -- 43
2021-01-13 17:00:00 14.7 2 Sudoeste 8 Sur 0 -- -- 36
2021-01-13 16:00:00 13.8 4 Sur 9 Sur 0 -- -- 37
2021-01-13 15:00:00 13 4 Sudeste 8 Sur 0 -- -- 44
2021-01-13 14:00:00 11.3 3 Sur 6 Sudoeste 0 -- -- 49
2021-01-13 13:00:00 8.9 2 Sur 9 Sur 0 -- -- 59
2021-01-13 12:00:00 6.3 3 Sudeste 9 Sudeste 0 -- -- 68
2021-01-13 11:00:00 1.8 0 Calma 4 Sur 0 -- -- 95
2021-01-13 10:00:00 -2.2 0 Calma 3 Sudeste 0 -- -- 96
2021-01-13 09:00:00 -3.6 0 Calma 2 Norte 0 -- -- 95
2021-01-13 08:00:00 -3.6 0 Calma 2 Norte 0 -- -- 95
2021-01-13 07:00:00 -3.2 0 Calma 3 Norte 0 -- -- 95
2021-01-13 06:00:00 -3.1 0 Calma 4 Norte 0 -- -- 95
2021-01-13 05:00:00 -2.9 0 Calma 2 Norte 0 -- -- 95
2021-01-13 04:00:00 -2.9 0 Calma 4 Sudoeste 0 -- -- 94
2021-01-13 03:00:00 -2.1 0 Calma 2 Noroeste -- -- -- 94
2021-01-13 02:00:00 -1.8 0 Calma 2 Noroeste 0 -- -- 94
2021-01-13 01:00:00 -1.5 0 Calma 2 Norte 0 -- -- 93
2021-01-13 00:00:00 -1.1 0 Calma 2 Oeste 0 -- -- 92
2021-01-12 23:00:00 -0.5 0 Calma 2 Sur 0 -- -- 91
2021-01-12 22:00:00 0.6 0 Calma 4 Norte 0 -- -- 90
2021-01-12 21:00:00 1.7 0 Calma 2 Norte 0 -- -- 86
2021-01-12 20:00:00 3.3 0 Calma 6 Norte 0 -- -- 80
2021-01-12 19:00:00 5.9 3 Norte 6 Norte 0 -- -- 69
2021-01-12 18:00:00 10.7 2 Nordeste 6 Este 0 -- -- 47
2021-01-12 17:00:00 12.2 4 Sudeste 10 Sudeste 0 -- -- 37
2021-01-12 16:00:00 11.4 4 Este 13 Nordeste 0 -- -- 40
2021-01-12 15:00:00 11 4 Este 12 Sudeste 0 -- -- 41
2021-01-12 14:00:00 9.6 6 Sudeste 19 Sudeste 0 -- -- 47
2021-01-12 13:00:00 8 6 Sudeste 16 Este 0 -- -- 57
2021-01-12 12:00:00 5.4 8 Este 17 Sudeste 0 -- -- 65
2021-01-12 11:00:00 3.1 4 Sur 9 Sudeste 0.2 -- -- 85
2021-01-12 10:00:00 -1.2 0 Calma 6 Sur 0 -- -- 97
2021-01-12 09:00:00 -3.2 0 Calma 2 Sur 0 -- -- 96
2021-01-12 08:00:00 -2.9 0 Calma 3 Norte 0 -- -- 96
2021-01-12 07:00:00 -2.8 0 Calma 0 Calma 0 -- -- 95
2021-01-12 06:00:00 -2.5 0 Calma 0 Calma 0 -- -- 95
2021-01-12 05:00:00 -1.9 0 Calma 3 Norte 0 -- -- 95
2021-01-12 04:00:00 -1.5 0 Calma 3 Norte 0 -- -- 95
2021-01-12 03:00:00 -1.2 0 Calma 2 Norte 0 -- -- 94
2021-01-12 02:00:00 -0.6 3 Norte 4 Norte 0 -- -- 93
2021-01-12 01:00:00 -0.1 0 Calma 3 Norte 0 -- -- 92
2021-01-12 00:00:00 1 2 Norte 4 Norte 0 -- -- 90
2021-01-11 23:00:00 1.8 0 Calma 4 Norte 0 -- -- 88
2021-01-11 22:00:00 2.9 2 Norte 4 Noroeste 0 -- -- 85
2021-01-11 21:00:00 4.6 0 Calma 8 Sudoeste 0 -- -- 79
2021-01-11 20:00:00 7.7 5 Nordeste 17 Este 0 -- -- 61
2021-01-11 19:00:00 7.8 5 Nordeste 8 Este 0 -- -- 70
2021-01-11 18:00:00 10.2 0 Calma 15 Este 0 -- -- 61
2021-01-11 17:00:00 11.8 6 Este 17 Este 0 -- -- 53
2021-01-11 16:00:00 11.7 7 Este 19 Este 0 -- -- 55
2021-01-11 15:00:00 12.1 6 Sudeste 19 Sudeste 0 -- -- 56
2021-01-11 14:00:00 11.2 6 Sudeste 15 Sudeste 0 -- -- 62
2021-01-11 13:00:00 9.7 3 Sur 10 Sur 0 -- -- 66
2021-01-11 12:00:00 7.6 3 Sur 9 Sudeste 0 -- -- 77
2021-01-11 11:00:00 4.6 2 Sudeste 4 Sur 0 -- -- 97
2021-01-11 10:00:00 0.4 0 Calma 4 Norte 0 -- -- 98
2021-01-11 09:00:00 -0.9 2 Norte 5 Norte 0 -- -- 98
2021-01-11 08:00:00 -0.9 0 Calma 3 Norte 0 -- -- 97
2021-01-11 07:00:00 -0.4 2 Norte 5 Norte 0 -- -- 97
2021-01-11 06:00:00 -0.2 4 Norte 6 Norte 0 -- -- 97
2021-01-11 05:00:00 0.1 0 Calma 6 Norte 0 -- -- 97
2021-01-11 04:00:00 0.4 2 Norte 4 Norte 0 -- -- 96
2021-01-11 03:00:00 0.8 2 Norte 4 Norte 0 -- -- 96
2021-01-11 02:00:00 1 0 Calma 2 Norte 0 -- -- 95
2021-01-11 01:00:00 1.9 0 Calma 2 Este 0 -- -- 95
2021-01-11 00:00:00 2.8 0 Calma 6 Este 0 -- -- 94
2021-01-10 23:00:00 3 0 Calma 6 Norte 0 -- -- 94
2021-01-10 22:00:00 3.2 4 Noroeste 6 Norte 0 -- -- 93
2021-01-10 21:00:00 3.6 3 Norte 4 Norte 0 -- -- 91
2021-01-10 20:00:00 4.1 0 Calma 4 Sudoeste 0 -- -- 88
2021-01-10 19:00:00 6 0 Calma 8 Norte 0 -- -- 81
2021-01-10 18:00:00 7.9 0 Calma 4 Norte 0 -- -- 73
2021-01-10 17:00:00 10.3 0 Calma 10 Sur 0 -- -- 53
2021-01-10 16:00:00 9.7 7 Sudeste 14 Este 0 -- -- 57
2021-01-10 15:00:00 10.4 7 Sudeste 22 Sudeste 0 -- -- 56
2021-01-10 14:00:00 10.4 8 Este 18 Sudeste 0 -- -- 63
2021-01-10 13:00:00 8.8 9 Este 23 Este 0 -- -- 74
2021-01-10 12:00:00 7.2 9 Este 20 Este 0 -- -- 84
2021-01-10 11:00:00 4.9 5 Sudeste 10 Sudeste 0 -- -- 97
2021-01-10 10:00:00 3 3 Norte 6 Nordeste 0 -- -- 98
2021-01-10 09:00:00 2.1 0 Calma 3 Noroeste 0 -- -- 97
2021-01-10 08:00:00 1.7 0 Calma 6 Sudoeste 0.6 -- -- 97
2021-01-10 07:00:00 0.7 0 Calma 9 Sudoeste 0 -- -- 96
2021-01-10 06:00:00 1.1 3 Sudoeste 5 Sudoeste 0 -- -- 95
2021-01-10 05:00:00 2.3 0 Calma 9 Este 0 -- -- 94
2021-01-10 04:00:00 3.5 5 Este 14 Sudeste 0 -- -- 93
2021-01-10 03:00:00 3.9 7 Sudeste 17 Este 0 -- -- 91
2021-01-10 02:00:00 3.6 0 Calma 8 Nordeste 0 -- -- 94
2021-01-10 01:00:00 3 2 Nordeste 5 Nordeste 0 -- -- 95
2021-01-10 00:00:00 2.6 0 Calma 3 Norte 0 -- -- 94
2021-01-09 23:00:00 3.3 2 Norte 8 Sudeste 0 -- -- 92
2021-01-09 22:00:00 3.8 4 Sudeste 15 Este 0 -- -- 92
2021-01-09 21:00:00 2.7 2 Este 8 Nordeste 0 -- -- 94
2021-01-09 20:00:00 3.2 0 Calma 4 Sur 0 -- -- 91
2021-01-09 19:00:00 4.3 2 Sudoeste 5 Nordeste 0 -- -- 89
2021-01-09 18:00:00 7 2 Norte 7 Noroeste 0 -- -- 77
2021-01-09 17:00:00 7.6 3 Noroeste 9 Oeste 0 -- -- 76
2021-01-09 16:00:00 6.8 5 Oeste 15 Oeste 0 -- -- 80
2021-01-09 15:00:00 6.7 8 Oeste 30 Sudoeste 0 -- -- 80
2021-01-09 14:00:00 6.6 18 Sudoeste 36 Sudoeste 0 -- -- 76
2021-01-09 13:00:00 6.2 17 Sudoeste 32 Sudoeste 0 -- -- 81
2021-01-09 12:00:00 5.5 12 Sudoeste 32 Sudoeste 0.2 -- -- 89
2021-01-09 11:00:00 5.5 15 Sudoeste 35 Sudoeste 0 -- -- 89
2021-01-09 10:00:00 5.3 16 Sudoeste 33 Sudoeste 0 -- -- 90
2021-01-09 09:00:00 5.3 14 Sudoeste 29 Sudoeste 0 -- -- 91
2021-01-09 08:00:00 5.4 18 Sudoeste 41 Oeste 0 -- -- 92
2021-01-09 07:00:00 6 11 Oeste 27 Oeste 0 -- -- 96
2021-01-09 06:00:00 6.3 5 Noroeste 15 Oeste 0 -- -- 97
2021-01-09 05:00:00 6.5 6 Noroeste 21 Oeste 0 -- -- 96
2021-01-09 04:00:00 7 15 Oeste 27 Oeste 0 -- -- 95
2021-01-09 03:00:00 7.2 11 Oeste 28 Sudoeste 0 -- -- 95
2021-01-09 02:00:00 8.6 14 Sudoeste 29 Sudoeste 2.2 -- -- 96
2021-01-09 01:00:00 8.4 5 Sudeste 15 Este 3.2 -- -- 95
2021-01-09 00:00:00 8.7 6 Sudeste 23 Este 2 -- -- 94
2021-01-08 23:00:00 8.7 9 Sudeste 17 Sudeste 2.6 -- -- 94
2021-01-08 22:00:00 9.1 2 Sudeste 17 Este 1.4 -- -- 90
2021-01-08 21:00:00 9.9 7 Este 22 Este 0.4 -- -- 82
2021-01-08 20:00:00 10.6 10 Este 25 Este 0 -- -- 75
2021-01-08 19:00:00 10.2 7 Este 23 Este 0 -- -- 79
2021-01-08 18:00:00 10 11 Este 27 Sudeste 0 -- -- 79
2021-01-08 17:00:00 9.3 7 Sudeste 19 Sudeste 0 -- -- 86
2021-01-08 16:00:00 8.8 9 Este 23 Este 0 -- -- 89
2021-01-08 15:00:00 8.1 8 Nordeste 21 Este 1.4 -- -- 94
2021-01-08 14:00:00 7.9 9 Este 28 Nordeste 2.4 -- -- 94
2021-01-08 13:00:00 7.8 10 Nordeste 21 Nordeste 3 -- -- 94
2021-01-08 12:00:00 7.7 8 Nordeste 30 Este 1.2 -- -- 93
2021-01-08 11:00:00 7.5 8 Este 19 Este 1 -- -- 93
2021-01-08 10:00:00 7 5 Sudeste 14 Este 1.4 -- -- 95
2021-01-08 09:00:00 6.5 5 Este 13 Este 0.4 -- -- 95
2021-01-08 08:00:00 6.4 3 Sudeste 13 Sudeste 0.4 -- -- 95
2021-01-08 07:00:00 6.2 4 Sur 9 Sur 0.2 -- -- 95
2021-01-08 06:00:00 6.1 4 Sudeste 10 Sudeste 0 -- -- 95
2021-01-08 05:00:00 6.1 4 Este 14 Este 0.2 -- -- 95
2021-01-08 04:00:00 5.7 4 Sudeste 10 Este 0.8 -- -- 96
2021-01-08 03:00:00 5.5 3 Sudeste 10 Sudeste 0.8 -- -- 96
2021-01-08 02:00:00 5.5 4 Sudeste 8 Este 1 -- -- 96
2021-01-08 01:00:00 5.4 3 Sudeste 8 Este 1.4 -- -- 95
2021-01-08 00:00:00 5.4 3 Sudeste 4 Sudeste 0.8 -- -- 95
2021-01-07 23:00:00 5.6 0 Calma 6 Este 0.8 -- -- 94
2021-01-07 22:00:00 5.8 3 Sudeste 9 Este 0.2 -- -- 93
2021-01-07 21:00:00 5.9 3 Sudeste 10 Sudeste 0.2 -- -- 93
2021-01-07 20:00:00 6.2 3 Sudeste 8 Sudeste 0 -- -- 91
2021-01-07 19:00:00 6.4 0 Calma 4 Sudeste 0 -- -- 92
2021-01-07 18:00:00 6.7 2 Sudeste 14 Este 0 -- -- 91
2021-01-07 17:00:00 6.9 7 Este 15 Nordeste 0.2 -- -- 90
2021-01-07 16:00:00 7 5 Este 15 Este 0.2 -- -- 90
2021-01-07 15:00:00 7 3 Nordeste 12 Este 0.6 -- -- 90
2021-01-07 14:00:00 6.9 5 Este 12 Este 0.4 -- -- 90
2021-01-07 13:00:00 6.9 3 Este 12 Nordeste 1.4 -- -- 91
2021-01-07 12:00:00 6.8 2 Nordeste 9 Este 0.6 -- -- 91
2021-01-07 11:00:00 6.7 3 Este 11 Sudeste 0.4 -- -- 92
2021-01-07 10:00:00 6.4 4 Este 14 Este 0.8 -- -- 91
2021-01-07 09:00:00 6.4 3 Nordeste 8 Nordeste 1.4 -- -- 92
2021-01-07 08:00:00 6.5 2 Sudeste 10 Este 0.6 -- -- 91
2021-01-07 07:00:00 6.7 4 Este 17 Este 0.4 -- -- 91
2021-01-07 06:00:00 6.6 0 Calma 10 Este 0.2 -- -- 92
2021-01-07 05:00:00 6.7 5 Este 15 Sudeste 0.2 -- -- 92
2021-01-07 04:00:00 6.6 0 Calma 7 Este 0.6 -- -- 92
2021-01-07 03:00:00 6.9 4 Este 12 Este 0.2 -- -- 90
2021-01-07 02:00:00 6.8 5 Este 17 Este 1.4 -- -- 91
2021-01-07 01:00:00 7.1 5 Sudeste 19 Este 0.4 -- -- 89
2021-01-07 00:00:00 7.5 10 Este 21 Sudeste 0.2 -- -- 83
2021-01-06 23:00:00 7 4 Nordeste 10 Nordeste 0 -- -- 83
2021-01-06 22:00:00 7.2 4 Sudeste 8 Nordeste 0.4 -- -- 82
2021-01-06 21:00:00 7.3 2 Este 4 Nordeste 0 -- -- 76
2021-01-06 20:00:00 7.5 0 Calma 4 Sudeste 0 -- -- 75
2021-01-06 19:00:00 8.5 2 Sur 5 Sudeste 0 -- -- 69
2021-01-06 18:00:00 9.3 0 Calma 5 Este 0 -- -- 66
2021-01-06 17:00:00 9.8 4 Este 10 Sudeste 0 -- -- 65
2021-01-06 16:00:00 9.4 5 Este 15 Este 0 -- -- 65
2021-01-06 15:00:00 9.3 7 Este 19 Sudeste 0 -- -- 62
2021-01-06 14:00:00 9.5 6 Sudeste 19 Este 0 -- -- 60
2021-01-06 13:00:00 8.6 7 Este 19 Sudeste 0 -- -- 63
2021-01-06 12:00:00 7.7 6 Este 15 Este 0 -- -- 64
2021-01-06 11:00:00 4.8 4 Este 12 Este 0 -- -- 80
2021-01-06 10:00:00 2.8 3 Sudoeste 11 Sur 0 -- -- 92
2021-01-06 09:00:00 2.6 5 Sur 9 Sudeste 0 -- -- 91
2021-01-06 08:00:00 1.9 0 Calma 5 Sudeste 0 -- -- 94
2021-01-06 07:00:00 2.1 2 Sudoeste 12 Sudoeste 0 -- -- 94
2021-01-06 06:00:00 1.8 0 Calma 6 Sudoeste 0 -- -- 95
2021-01-06 05:00:00 1 2 Sur 5 Norte 0 -- -- 95
2021-01-06 04:00:00 1 3 Norte 6 Norte 0 -- -- 96
2021-01-06 03:00:00 0.3 2 Norte 5 Norte 0 -- -- 95
2021-01-06 02:00:00 -0.2 2 Norte 7 Norte 0 -- -- 95
2021-01-06 01:00:00 -0.4 4 Norte 5 Norte 0 -- -- 94
2021-01-06 00:00:00 -0.1 2 Noroeste 6 Noroeste 0 -- -- 93
2021-01-05 23:00:00 0.6 3 Norte 5 Norte 0 -- -- 92
2021-01-05 22:00:00 1.4 3 Norte 4 Norte 0 -- -- 90
2021-01-05 21:00:00 2.7 0 Calma 3 Norte 0 -- -- 85
2021-01-05 20:00:00 4.1 3 Sudoeste 5 Sudoeste 0 -- -- 79
2021-01-05 19:00:00 6.6 3 Norte 7 Nordeste 0 -- -- 73
2021-01-05 18:00:00 8.7 4 Nordeste 12 Este 0 -- -- 60
2021-01-05 17:00:00 10 3 Sudeste 19 Sudeste 0 -- -- 56
2021-01-05 16:00:00 10.5 6 Este 16 Sudeste 0 -- -- 61
2021-01-05 15:00:00 10.7 6 Sudeste 18 Este 0 -- -- 61
2021-01-05 14:00:00 10.1 8 Este 19 Este 0 -- -- 66
2021-01-05 13:00:00 8.4 6 Sudeste 19 Sudeste 0 -- -- 73
2021-01-05 12:00:00 7.2 7 Este 18 Este 0 -- -- 80
2021-01-05 11:00:00 5.3 6 Este 12 Este 0 -- -- 92
2021-01-05 10:00:00 2.2 2 Sudoeste 8 Sur 0 -- -- 97
2021-01-05 09:00:00 2.1 3 Nordeste 9 Este 0 -- -- 96
2021-01-05 08:00:00 3 8 Este 17 Este 0 -- -- 97
2021-01-05 07:00:00 2.9 2 Sudeste 10 Sudeste 0 -- -- 97
2021-01-05 06:00:00 2.8 5 Sudeste 14 Sudeste 0 -- -- 98
2021-01-05 05:00:00 2.9 4 Sudeste 9 Este 0 -- -- 98
2021-01-05 04:00:00 1.9 0 Calma 5 Sudoeste 0 -- -- 98
2021-01-05 03:00:00 1.3 0 Calma 5 Sudoeste 0 -- -- 97
2021-01-05 02:00:00 1.4 3 Sur 5 Sur 0 -- -- 97
2021-01-05 01:00:00 0.6 0 Calma 6 Sur 0 -- -- 97
2021-01-05 00:00:00 1 0 Calma 5 Norte 0 -- -- 96
2021-01-04 23:00:00 2.2 0 Calma 6 Norte 0 -- -- 94
2021-01-04 22:00:00 3.6 0 Calma 3 Sur 0 -- -- 95
2021-01-04 21:00:00 4 0 Calma 4 Norte 0 -- -- 94
2021-01-04 20:00:00 4.9 0 Calma 4 Sur 0 -- -- 92
2021-01-04 19:00:00 6.5 0 Calma 2 Este 0.2 -- -- 90
2021-01-04 18:00:00 7.2 0 Calma 7 Noroeste 0.2 -- -- 82
2021-01-04 17:00:00 8 3 Noroeste 8 Noroeste 0 -- -- 74
2021-01-04 16:00:00 8.8 4 Sudoeste 13 Noroeste 0 -- -- 70
2021-01-04 15:00:00 6.4 0 Calma 3 Oeste 0 -- -- 80
2021-01-04 14:00:00 5.6 0 Calma 4 Sudeste 0 -- -- 84
2021-01-04 13:00:00 3.1 2 Sudeste 6 Sur 0 -- -- 94
2021-01-04 12:00:00 0.3 0 Calma 3 Sur 0 -- -- 98
2021-01-04 11:00:00 -1.6 0 Calma 2 Sur 0 -- -- 97
2021-01-04 10:00:00 -3.1 0 Calma 2 Sur 0 -- -- 97
2021-01-04 09:00:00 -3.8 0 Calma 2 Sudoeste 0 -- -- 96
2021-01-04 08:00:00 -4.3 2 Sudoeste 3 Sudoeste 0 -- -- 95
2021-01-04 07:00:00 -3.3 0 Calma 2 Sur 0 -- -- 95
2021-01-04 06:00:00 -3.5 0 Calma 2 Sudeste 0 -- -- 94
2021-01-04 05:00:00 -3.4 0 Calma 2 Sudeste 0 -- -- 94
2021-01-04 04:00:00 -2.3 0 Calma 4 Sudoeste 0 -- -- 95
2021-01-04 03:00:00 -2.2 0 Calma 2 Sudeste 0 -- -- 95
2021-01-04 02:00:00 -1.8 0 Calma 2 Oeste 0 -- -- 95
2021-01-04 01:00:00 -1.1 0 Calma 2 Noroeste 0 -- -- 94
2021-01-04 00:00:00 -0.7 0 Calma 2 Norte 0 -- -- 93
2021-01-03 23:00:00 0 0 Calma 2 Norte 0 -- -- 92
2021-01-03 22:00:00 1.1 0 Calma 2 Norte 0 -- -- 90
2021-01-03 21:00:00 2.3 2 Norte 8 Noroeste 0 -- -- 87
2021-01-03 20:00:00 3.9 4 Noroeste 6 Noroeste 0 -- -- 81
2021-01-03 19:00:00 5.1 0 Calma 7 Noroeste 0 -- -- 76
2021-01-03 18:00:00 8.3 4 Noroeste 15 Oeste 0 -- -- 64
2021-01-03 17:00:00 10 10 Sudoeste 20 Sudoeste 0 -- -- 58
2021-01-03 16:00:00 10.3 9 Sudoeste 17 Oeste 0 -- -- 57
2021-01-03 15:00:00 9.6 8 Sudoeste 14 Oeste 0 -- -- 60
2021-01-03 14:00:00 8.6 4 Oeste 15 Sudoeste 0 -- -- 65
2021-01-03 13:00:00 7 3 Sudoeste 9 Sur 0 -- -- 70
2021-01-03 12:00:00 4 3 Sur 5 Sudoeste 0 -- -- 82
2021-01-03 11:00:00 0.8 2 Sur 5 Sur 0 -- -- 96
2021-01-03 10:00:00 -2.4 0 Calma 4 Sudeste 0 -- -- 96
2021-01-03 09:00:00 -3.7 2 Noroeste 3 Noroeste 0 -- -- 96
2021-01-03 08:00:00 -4.3 0 Calma 2 Sudoeste 0 -- -- 95
2021-01-03 07:00:00 -3.8 0 Calma 2 Sudeste 0 -- -- 95
2021-01-03 06:00:00 -3.1 0 Calma 2 Sudeste 0 -- -- 96
2021-01-03 05:00:00 -3 0 Calma 4 Sur 0 -- -- 95
2021-01-03 04:00:00 -2 2 Norte 4 Norte 0 -- -- 95
2021-01-03 03:00:00 -2.3 3 Sur 5 Sur -- -- -- 93
2021-01-03 02:00:00 -1.4 0 Calma 3 Sudoeste 0 -- -- 94
2021-01-03 01:00:00 -0.7 3 Norte 4 Este 0 -- -- 93
2021-01-03 00:00:00 -0.1 2 Norte 4 Norte 0 -- -- 92
2021-01-02 23:00:00 0.6 0 Calma 4 Noroeste 0 -- -- 90
2021-01-02 22:00:00 1.2 0 Calma 4 Sudeste 0 -- -- 86
2021-01-02 21:00:00 3.2 0 Calma 6 Noroeste 0 -- -- 80
2021-01-02 20:00:00 4.3 5 Noroeste 10 Noroeste 0 -- -- 73
2021-01-02 19:00:00 6.3 4 Noroeste 9 Noroeste 0 -- -- 61
2021-01-02 18:00:00 8.5 7 Noroeste 22 Noroeste 0 -- -- 53
2021-01-02 17:00:00 10.6 9 Noroeste 21 Sudoeste 0 -- -- 45
2021-01-02 16:00:00 10.8 10 Sudoeste 20 Sudoeste 0 -- -- 61
2021-01-02 15:00:00 9.7 11 Sudoeste 24 Sudoeste 0 -- -- 67
2021-01-02 14:00:00 8.9 9 Sudoeste 22 Sudoeste 0 -- -- 73